sensor_id;sensor_type;location;lat;lon;timestamp;pressure;altitude;pressure_sealevel;temperature;humidity
70027;BME280;57506;50.092;15.804;2023-04-10T00:01:36;99856.03;;;3.03;100.00
70027;BME280;57506;50.092;15.804;2023-04-10T00:04:03;99862.81;;;3.07;100.00
70027;BME280;57506;50.092;15.804;2023-04-10T00:06:29;99851.94;;;2.99;100.00
70027;BME280;57506;50.092;15.804;2023-04-10T00:08:56;99869.09;;;3.06;100.00
70027;BME280;57506;50.092;15.804;2023-04-10T00:11:21;99871.03;;;3.04;100.00
70027;BME280;57506;50.092;15.804;2023-04-10T00:13:47;99874.56;;;3.05;100.00
70027;BME280;57506;50.092;15.804;2023-04-10T00:16:12;99857.25;;;2.99;100.00
70027;BME280;57506;50.092;15.804;2023-04-10T00:18:38;99862.94;;;3.06;100.00
70027;BME280;57506;50.092;15.804;2023-04-10T00:21:03;99866.63;;;3.14;100.00
70027;BME280;57506;50.092;15.804;2023-04-10T00:23:29;99860.78;;;3.21;100.00
70027;BME280;57506;50.092;15.804;2023-04-10T00:25:59;99873.44;;;3.28;100.00
70027;BME280;57506;50.092;15.804;2023-04-10T00:28:25;99873.28;;;3.30;100.00
70027;BME280;57506;50.092;15.804;2023-04-10T00:30:50;99865.56;;;3.27;100.00
70027;BME280;57506;50.092;15.804;2023-04-10T00:33:16;99855.31;;;3.22;100.00
70027;BME280;57506;50.092;15.804;2023-04-10T00:35:41;99865.84;;;3.24;100.00
70027;BME280;57506;50.092;15.804;2023-04-10T00:38:06;99860.78;;;3.21;100.00
70027;BME280;57506;50.092;15.804;2023-04-10T00:40:32;99868.19;;;3.17;100.00
70027;BME280;57506;50.092;15.804;2023-04-10T00:42:59;99860.31;;;3.15;100.00
70027;BME280;57506;50.092;15.804;2023-04-10T00:45:25;99851.19;;;3.08;100.00
70027;BME280;57506;50.092;15.804;2023-04-10T00:47:51;99858.03;;;3.11;100.00
70027;BME280;57506;50.092;15.804;2023-04-10T00:50:17;99856.22;;;3.11;100.00
70027;BME280;57506;50.092;15.804;2023-04-10T00:52:43;99860.13;;;3.07;100.00
70027;BME280;57506;50.092;15.804;2023-04-10T00:55:09;99847.84;;;2.95;100.00
70027;BME280;57506;50.092;15.804;2023-04-10T00:57:36;99849.22;;;2.90;100.00
70027;BME280;57506;50.092;15.804;2023-04-10T01:00:02;99842.25;;;2.77;100.00
70027;BME280;57506;50.092;15.804;2023-04-10T01:02:29;99858.56;;;2.84;100.00
70027;BME280;57506;50.092;15.804;2023-04-10T01:04:54;99847.28;;;2.92;100.00
70027;BME280;57506;50.092;15.804;2023-04-10T01:07:22;99844.19;;;2.96;100.00
70027;BME280;57506;50.092;15.804;2023-04-10T01:09:58;99834.94;;;2.91;100.00
70027;BME280;57506;50.092;15.804;2023-04-10T01:15:37;99851.06;;;2.78;100.00
70027;BME280;57506;50.092;15.804;2023-04-10T01:18:24;99850.88;;;2.70;100.00
70027;BME280;57506;50.092;15.804;2023-04-10T01:20:50;99858.50;;;2.63;100.00
70027;BME280;57506;50.092;15.804;2023-04-10T01:26:02;99856.69;;;2.64;100.00
70027;BME280;57506;50.092;15.804;2023-04-10T01:31:16;99857.38;;;2.45;100.00
70027;BME280;57506;50.092;15.804;2023-04-10T01:33:48;99862.63;;;2.35;100.00
70027;BME280;57506;50.092;15.804;2023-04-10T01:36:23;99860.91;;;2.34;100.00
70027;BME280;57506;50.092;15.804;2023-04-10T01:38:52;99842.78;;;2.39;100.00
70027;BME280;57506;50.092;15.804;2023-04-10T01:41:21;99840.25;;;2.38;100.00
70027;BME280;57506;50.092;15.804;2023-04-10T01:43:48;99843.94;;;2.46;100.00
70027;BME280;57506;50.092;15.804;2023-04-10T01:46:17;99842.84;;;2.49;100.00
70027;BME280;57506;50.092;15.804;2023-04-10T01:48:44;99831.38;;;2.49;100.00
70027;BME280;57506;50.092;15.804;2023-04-10T01:51:12;99832.81;;;2.53;100.00
70027;BME280;57506;50.092;15.804;2023-04-10T01:53:38;99820.72;;;2.49;100.00
70027;BME280;57506;50.092;15.804;2023-04-10T01:56:07;99828.59;;;2.50;100.00
70027;BME280;57506;50.092;15.804;2023-04-10T01:58:33;99833.91;;;2.50;100.00
70027;BME280;57506;50.092;15.804;2023-04-10T02:00:59;99833.91;;;2.50;100.00
70027;BME280;57506;50.092;15.804;2023-04-10T02:03:24;99819.97;;;2.26;100.00
70027;BME280;57506;50.092;15.804;2023-04-10T02:08:35;99849.16;;;2.05;100.00
70027;BME280;57506;50.092;15.804;2023-04-10T02:11:11;99851.47;;;1.87;100.00
70027;BME280;57506;50.092;15.804;2023-04-10T02:13:39;99851.31;;;2.11;100.00
70027;BME280;57506;50.092;15.804;2023-04-10T02:16:06;99845.03;;;2.01;100.00
70027;BME280;57506;50.092;15.804;2023-04-10T02:18:36;99843.41;;;1.78;100.00
70027;BME280;57506;50.092;15.804;2023-04-10T02:21:03;99853.19;;;1.55;100.00
70027;BME280;57506;50.092;15.804;2023-04-10T02:23:29;99845.06;;;1.67;100.00
70027;BME280;57506;50.092;15.804;2023-04-10T02:25:54;99835.03;;;1.82;100.00
70027;BME280;57506;50.092;15.804;2023-04-10T02:28:21;99841.81;;;1.86;100.00
70027;BME280;57506;50.092;15.804;2023-04-10T02:30:47;99851.22;;;1.79;100.00
70027;BME280;57506;50.092;15.804;2023-04-10T02:33:12;99843.00;;;1.82;100.00
70027;BME280;57506;50.092;15.804;2023-04-10T02:35:38;99848.00;;;1.75;100.00
70027;BME280;57506;50.092;15.804;2023-04-10T02:38:03;99843.50;;;1.65;100.00
70027;BME280;57506;50.092;15.804;2023-04-10T02:40:29;99851.84;;;1.60;100.00
70027;BME280;57506;50.092;15.804;2023-04-10T02:42:54;99839.28;;;1.85;100.00
70027;BME280;57506;50.092;15.804;2023-04-10T02:45:20;99830.91;;;2.00;100.00
70027;BME280;57506;50.092;15.804;2023-04-10T02:47:45;99832.75;;;1.89;100.00
70027;BME280;57506;50.092;15.804;2023-04-10T02:50:11;99830.81;;;1.91;100.00
70027;BME280;57506;50.092;15.804;2023-04-10T02:52:36;99833.47;;;1.91;100.00
70027;BME280;57506;50.092;15.804;2023-04-10T02:55:02;99810.44;;;1.58;100.00
70027;BME280;57506;50.092;15.804;2023-04-10T02:57:27;99844.13;;;1.68;100.00
70027;BME280;57506;50.092;15.804;2023-04-10T02:59:53;99842.28;;;1.91;100.00
70027;BME280;57506;50.092;15.804;2023-04-10T03:02:19;99847.47;;;2.04;100.00
70027;BME280;57506;50.092;15.804;2023-04-10T03:04:44;99852.47;;;1.75;100.00
70027;BME280;57506;50.092;15.804;2023-04-10T03:07:10;99845.34;;;1.42;100.00
70027;BME280;57506;50.092;15.804;2023-04-10T03:09:36;99854.97;;;1.21;100.00
70027;BME280;57506;50.092;15.804;2023-04-10T03:12:01;99846.66;;;1.36;100.00
70027;BME280;57506;50.092;15.804;2023-04-10T03:14:27;99851.34;;;1.33;100.00
70027;BME280;57506;50.092;15.804;2023-04-10T03:16:52;99857.72;;;1.19;100.00
70027;BME280;57506;50.092;15.804;2023-04-10T03:19:18;99863.13;;;1.07;100.00
70027;BME280;57506;50.092;15.804;2023-04-10T03:21:44;99860.19;;;0.87;100.00
70027;BME280;57506;50.092;15.804;2023-04-10T03:24:10;99851.97;;;0.79;100.00
70027;BME280;57506;50.092;15.804;2023-04-10T03:26:36;99858.34;;;0.77;100.00
70027;BME280;57506;50.092;15.804;2023-04-10T03:29:01;99849.75;;;1.19;100.00
70027;BME280;57506;50.092;15.804;2023-04-10T03:31:28;99849.75;;;1.19;100.00
70027;BME280;57506;50.092;15.804;2023-04-10T03:33:54;99853.59;;;1.04;100.00
70027;BME280;57506;50.092;15.804;2023-04-10T03:36:19;99830.94;;;1.33;100.00
70027;BME280;57506;50.092;15.804;2023-04-10T03:38:45;99844.47;;;1.42;100.00
70027;BME280;57506;50.092;15.804;2023-04-10T03:41:10;99847.94;;;1.20;100.00
70027;BME280;57506;50.092;15.804;2023-04-10T03:43:36;99859.50;;;0.96;100.00
70027;BME280;57506;50.092;15.804;2023-04-10T03:46:01;99844.03;;;0.79;100.00
70027;BME280;57506;50.092;15.804;2023-04-10T03:48:27;99851.06;;;1.02;100.00
70027;BME280;57506;50.092;15.804;2023-04-10T03:50:54;99852.25;;;0.98;100.00
70027;BME280;57506;50.092;15.804;2023-04-10T03:53:20;99856.75;;;0.63;100.00
70027;BME280;57506;50.092;15.804;2023-04-10T03:55:46;99865.31;;;0.43;100.00
70027;BME280;57506;50.092;15.804;2023-04-10T03:58:12;99865.53;;;0.40;100.00
70027;BME280;57506;50.092;15.804;2023-04-10T04:00:37;99859.84;;;0.33;100.00
70027;BME280;57506;50.092;15.804;2023-04-10T04:03:03;99866.66;;;0.24;100.00
70027;BME280;57506;50.092;15.804;2023-04-10T04:05:30;99867.72;;;0.22;100.00
70027;BME280;57506;50.092;15.804;2023-04-10T04:07:56;99859.69;;;0.47;100.00
70027;BME280;57506;50.092;15.804;2023-04-10T04:10:21;99862.38;;;0.34;100.00
70027;BME280;57506;50.092;15.804;2023-04-10T04:12:48;99862.84;;;0.28;100.00
70027;BME280;57506;50.092;15.804;2023-04-10T04:15:13;99845.00;;;0.07;100.00
70027;BME280;57506;50.092;15.804;2023-04-10T04:17:39;99877.22;;;0.00;100.00
70027;BME280;57506;50.092;15.804;2023-04-10T04:20:05;99878.59;;;0.06;100.00
70027;BME280;57506;50.092;15.804;2023-04-10T04:22:30;99881.94;;;-0.03;100.00
70027;BME280;57506;50.092;15.804;2023-04-10T04:24:56;99870.63;;;-0.18;100.00
70027;BME280;57506;50.092;15.804;2023-04-10T04:27:21;99868.91;;;-0.06;100.00
70027;BME280;57506;50.092;15.804;2023-04-10T04:29:47;99878.81;;;0.03;100.00
70027;BME280;57506;50.092;15.804;2023-04-10T04:32:13;99868.91;;;-0.06;100.00
70027;BME280;57506;50.092;15.804;2023-04-10T04:34:39;99880.88;;;-0.13;100.00
70027;BME280;57506;50.092;15.804;2023-04-10T04:37:04;99878.69;;;-0.19;100.00
70027;BME280;57506;50.092;15.804;2023-04-10T04:39:30;99897.31;;;-0.08;100.00
70027;BME280;57506;50.092;15.804;2023-04-10T04:41:55;99889.50;;;0.14;100.00
70027;BME280;57506;50.092;15.804;2023-04-10T04:44:21;99895.97;;;0.10;100.00
70027;BME280;57506;50.092;15.804;2023-04-10T04:46:46;99898.16;;;-0.08;100.00
70027;BME280;57506;50.092;15.804;2023-04-10T04:49:11;99901.13;;;-0.12;100.00
70027;BME280;57506;50.092;15.804;2023-04-10T04:51:37;99907.38;;;-0.13;100.00
70027;BME280;57506;50.092;15.804;2023-04-10T04:54:03;99903.34;;;-0.06;100.00
70027;BME280;57506;50.092;15.804;2023-04-10T04:56:28;99901.75;;;-0.09;100.00
70027;BME280;57506;50.092;15.804;2023-04-10T04:58:54;99899.72;;;-0.05;100.00
70027;BME280;57506;50.092;15.804;2023-04-10T05:01:19;99896.03;;;-0.03;100.00
70027;BME280;57506;50.092;15.804;2023-04-10T05:03:44;99902.66;;;0.03;100.00
70027;BME280;57506;50.092;15.804;2023-04-10T05:06:10;99907.97;;;0.03;100.00
70027;BME280;57506;50.092;15.804;2023-04-10T05:08:35;99904.25;;;0.06;100.00
70027;BME280;57506;50.092;15.804;2023-04-10T05:11:01;99913.13;;;0.17;100.00
70027;BME280;57506;50.092;15.804;2023-04-10T05:13:26;99904.22;;;0.18;100.00
70027;BME280;57506;50.092;15.804;2023-04-10T05:15:52;99901.88;;;0.26;100.00
70027;BME280;57506;50.092;15.804;2023-04-10T05:18:17;99905.63;;;0.35;100.00
70027;BME280;57506;50.092;15.804;2023-04-10T05:20:45;99902.44;;;0.43;100.00
70027;BME280;57506;50.092;15.804;2023-04-10T05:23:12;99904.94;;;0.57;100.00
70027;BME280;57506;50.092;15.804;2023-04-10T05:25:37;99899.44;;;0.71;100.00
70027;BME280;57506;50.092;15.804;2023-04-10T05:28:03;99921.72;;;0.92;100.00
70027;BME280;57506;50.092;15.804;2023-04-10T05:30:28;99903.16;;;0.92;100.00
70027;BME280;57506;50.092;15.804;2023-04-10T05:32:54;99911.03;;;1.05;100.00
70027;BME280;57506;50.092;15.804;2023-04-10T05:35:19;99914.22;;;1.21;100.00
70027;BME280;57506;50.092;15.804;2023-04-10T05:37:45;99916.16;;;1.30;100.00
70027;BME280;57506;50.092;15.804;2023-04-10T05:40:10;99922.75;;;1.60;100.00
70027;BME280;57506;50.092;15.804;2023-04-10T05:42:36;99901.00;;;1.66;100.00
70027;BME280;57506;50.092;15.804;2023-04-10T05:45:01;99909.56;;;1.81;100.00
70027;BME280;57506;50.092;15.804;2023-04-10T05:47:27;99910.91;;;1.86;100.00
70027;BME280;57506;50.092;15.804;2023-04-10T05:49:52;99910.31;;;1.94;100.00
70027;BME280;57506;50.092;15.804;2023-04-10T05:52:18;99915.72;;;2.03;100.00
70027;BME280;57506;50.092;15.804;2023-04-10T05:54:43;99917.31;;;2.06;100.00
70027;BME280;57506;50.092;15.804;2023-04-10T05:57:09;99934.31;;;2.37;100.00
70027;BME280;57506;50.092;15.804;2023-04-10T05:59:35;99918.53;;;2.56;100.00
70027;BME280;57506;50.092;15.804;2023-04-10T06:02:00;99928.00;;;2.81;100.00
70027;BME280;57506;50.092;15.804;2023-04-10T06:04:26;99920.00;;;2.92;100.00
70027;BME280;57506;50.092;15.804;2023-04-10T06:06:51;99918.56;;;2.88;100.00
70027;BME280;57506;50.092;15.804;2023-04-10T06:09:17;99923.09;;;2.97;100.00
70027;BME280;57506;50.092;15.804;2023-04-10T06:11:42;99934.28;;;3.12;100.00
70027;BME280;57506;50.092;15.804;2023-04-10T06:14:08;99925.59;;;3.31;100.00
70027;BME280;57506;50.092;15.804;2023-04-10T06:16:33;99930.22;;;3.49;100.00
70027;BME280;57506;50.092;15.804;2023-04-10T06:18:59;99941.78;;;3.60;100.00
70027;BME280;57506;50.092;15.804;2023-04-10T06:21:24;99954.44;;;3.67;100.00
70027;BME280;57506;50.092;15.804;2023-04-10T06:23:50;99962.91;;;3.72;100.00
70027;BME280;57506;50.092;15.804;2023-04-10T06:26:16;99976.16;;;3.83;100.00
70027;BME280;57506;50.092;15.804;2023-04-10T06:28:41;99984.00;;;4.06;100.00
70027;BME280;57506;50.092;15.804;2023-04-10T06:31:07;99996.41;;;4.16;100.00
70027;BME280;57506;50.092;15.804;2023-04-10T06:33:32;100005.53;;;4.23;100.00
70027;BME280;57506;50.092;15.804;2023-04-10T06:36:01;100014.84;;;4.29;100.00
70027;BME280;57506;50.092;15.804;2023-04-10T06:38:28;100003.09;;;4.41;100.00
70027;BME280;57506;50.092;15.804;2023-04-10T06:40:53;100030.94;;;4.48;100.00
70027;BME280;57506;50.092;15.804;2023-04-10T06:43:19;100009.59;;;4.58;100.00
70027;BME280;57506;50.092;15.804;2023-04-10T06:45:44;100038.50;;;4.83;100.00
70027;BME280;57506;50.092;15.804;2023-04-10T06:48:10;100037.53;;;4.94;100.00
70027;BME280;57506;50.092;15.804;2023-04-10T06:50:36;100048.66;;;4.99;100.00
70027;BME280;57506;50.092;15.804;2023-04-10T06:53:01;100040.91;;;4.96;100.00
70027;BME280;57506;50.092;15.804;2023-04-10T06:55:27;100046.25;;;4.96;100.00
70027;BME280;57506;50.092;15.804;2023-04-10T06:57:53;100036.28;;;4.98;100.00
70027;BME280;57506;50.092;15.804;2023-04-10T07:00:21;100029.97;;;5.09;100.00
70027;BME280;57506;50.092;15.804;2023-04-10T07:02:47;100029.28;;;5.16;100.00
70027;BME280;57506;50.092;15.804;2023-04-10T07:05:13;100033.06;;;5.23;100.00
70027;BME280;57506;50.092;15.804;2023-04-10T07:07:38;100038.31;;;5.44;100.00
70027;BME280;57506;50.092;15.804;2023-04-10T07:10:05;100024.78;;;5.65;100.00
70027;BME280;57506;50.092;15.804;2023-04-10T07:12:31;100030.97;;;5.75;100.00
70027;BME280;57506;50.092;15.804;2023-04-10T07:14:57;100040.25;;;5.81;100.00
70027;BME280;57506;50.092;15.804;2023-04-10T07:17:25;100035.06;;;5.89;100.00
70027;BME280;57506;50.092;15.804;2023-04-10T07:19:51;100045.03;;;6.06;100.00
70027;BME280;57506;50.092;15.804;2023-04-10T07:22:16;100035.81;;;6.28;100.00
70027;BME280;57506;50.092;15.804;2023-04-10T07:24:42;100049.34;;;6.63;100.00
70027;BME280;57506;50.092;15.804;2023-04-10T07:27:07;100055.69;;;6.90;100.00
70027;BME280;57506;50.092;15.804;2023-04-10T07:29:33;100055.66;;;7.17;100.00
70027;BME280;57506;50.092;15.804;2023-04-10T07:31:58;100061.19;;;7.33;100.00
70027;BME280;57506;50.092;15.804;2023-04-10T07:34:24;100051.19;;;7.35;100.00
70027;BME280;57506;50.092;15.804;2023-04-10T07:36:50;100070.03;;;7.44;100.00
70027;BME280;57506;50.092;15.804;2023-04-10T07:39:16;100064.03;;;7.50;100.00
70027;BME280;57506;50.092;15.804;2023-04-10T07:41:42;100073.38;;;7.81;100.00
70027;BME280;57506;50.092;15.804;2023-04-10T07:44:08;100067.72;;;7.84;100.00
70027;BME280;57506;50.092;15.804;2023-04-10T07:46:34;100071.00;;;7.96;100.00
70027;BME280;57506;50.092;15.804;2023-04-10T07:48:59;100070.91;;;8.05;100.00
70027;BME280;57506;50.092;15.804;2023-04-10T07:51:25;100063.88;;;8.04;100.00
70027;BME280;57506;50.092;15.804;2023-04-10T07:53:51;100060.56;;;8.11;100.00
70027;BME280;57506;50.092;15.804;2023-04-10T07:56:18;100062.91;;;8.14;100.00
70027;BME280;57506;50.092;15.804;2023-04-10T07:58:44;100046.16;;;8.37;100.00
70027;BME280;57506;50.092;15.804;2023-04-10T08:01:10;100051.63;;;8.28;100.00
70027;BME280;57506;50.092;15.804;2023-04-10T08:03:44;100064.13;;;8.37;100.00
70027;BME280;57506;50.092;15.804;2023-04-10T08:06:11;100054.81;;;8.31;100.00
70027;BME280;57506;50.092;15.804;2023-04-10T08:08:38;100055.69;;;8.32;100.00
70027;BME280;57506;50.092;15.804;2023-04-10T08:11:07;100067.59;;;8.55;100.00
70027;BME280;57506;50.092;15.804;2023-04-10T08:13:46;100069.84;;;8.68;100.00
70027;BME280;57506;50.092;15.804;2023-04-10T08:16:11;100071.91;;;8.82;100.00
70027;BME280;57506;50.092;15.804;2023-04-10T08:18:37;100065.59;;;8.99;100.00
70027;BME280;57506;50.092;15.804;2023-04-10T08:21:03;100080.16;;;9.23;100.00
70027;BME280;57506;50.092;15.804;2023-04-10T08:23:28;100075.63;;;9.31;100.00
70027;BME280;57506;50.092;15.804;2023-04-10T08:25:54;100075.59;;;9.23;100.00
70027;BME280;57506;50.092;15.804;2023-04-10T08:28:33;100070.44;;;9.38;100.00
70027;BME280;57506;50.092;15.804;2023-04-10T08:30:58;100064.72;;;9.41;100.00
70027;BME280;57506;50.092;15.804;2023-04-10T08:33:24;100065.84;;;9.22;100.00
70027;BME280;57506;50.092;15.804;2023-04-10T08:35:50;100065.28;;;9.10;100.00
70027;BME280;57506;50.092;15.804;2023-04-10T08:38:16;100067.50;;;9.15;100.00
70027;BME280;57506;50.092;15.804;2023-04-10T08:40:41;100059.47;;;9.23;100.00
70027;BME280;57506;50.092;15.804;2023-04-10T08:43:08;100057.53;;;9.58;100.00
70027;BME280;57506;50.092;15.804;2023-04-10T08:45:34;100045.91;;;9.65;100.00
70027;BME280;57506;50.092;15.804;2023-04-10T08:48:01;100052.66;;;9.86;100.00
70027;BME280;57506;50.092;15.804;2023-04-10T08:50:32;100050.28;;;9.91;100.00
70027;BME280;57506;50.092;15.804;2023-04-10T08:52:59;100051.78;;;10.09;100.00
70027;BME280;57506;50.092;15.804;2023-04-10T08:55:27;100053.97;;;10.14;100.00
70027;BME280;57506;50.092;15.804;2023-04-10T08:57:53;100032.28;;;10.24;100.00
70027;BME280;57506;50.092;15.804;2023-04-10T09:00:19;100043.53;;;10.43;100.00
70027;BME280;57506;50.092;15.804;2023-04-10T09:02:45;100044.88;;;10.47;100.00
70027;BME280;57506;50.092;15.804;2023-04-10T09:05:11;100045.03;;;10.46;100.00
70027;BME280;57506;50.092;15.804;2023-04-10T09:07:37;100044.16;;;10.62;100.00
70027;BME280;57506;50.092;15.804;2023-04-10T09:10:04;100045.94;;;10.77;100.00
70027;BME280;57506;50.092;15.804;2023-04-10T09:12:45;100038.19;;;10.74;100.00
70027;BME280;57506;50.092;15.804;2023-04-10T09:15:12;100044.88;;;10.95;100.00
70027;BME280;57506;50.092;15.804;2023-04-10T09:18:02;100035.53;;;11.05;100.00
70027;BME280;57506;50.092;15.804;2023-04-10T09:20:29;100043.19;;;11.25;100.00
70027;BME280;57506;50.092;15.804;2023-04-10T09:22:55;100042.75;;;11.13;96.52
70027;BME280;57506;50.092;15.804;2023-04-10T09:25:39;100036.78;;;10.95;98.19
70027;BME280;57506;50.092;15.804;2023-04-10T09:28:06;100029.09;;;10.83;100.00
70027;BME280;57506;50.092;15.804;2023-04-10T09:30:42;100038.22;;;11.05;98.13
70027;BME280;57506;50.092;15.804;2023-04-10T09:33:34;100030.81;;;11.07;95.70
70027;BME280;57506;50.092;15.804;2023-04-10T09:35:59;100026.38;;;10.83;95.75
70027;BME280;57506;50.092;15.804;2023-04-10T09:38:25;100024.09;;;10.64;97.17
70027;BME280;57506;50.092;15.804;2023-04-10T09:40:51;100029.03;;;10.52;95.66
70027;BME280;57506;50.092;15.804;2023-04-10T09:43:23;100030.72;;;10.45;98.54
70027;BME280;57506;50.092;15.804;2023-04-10T09:45:54;100015.44;;;10.30;99.40
70027;BME280;57506;50.092;15.804;2023-04-10T09:48:22;100017.78;;;10.33;99.01
70027;BME280;57506;50.092;15.804;2023-04-10T09:50:49;100013.25;;;10.33;98.97
70027;BME280;57506;50.092;15.804;2023-04-10T09:53:16;100005.16;;;10.33;98.67
70027;BME280;57506;50.092;15.804;2023-04-10T09:55:44;99999.09;;;10.31;95.65
70027;BME280;57506;50.092;15.804;2023-04-10T09:58:11;99995.19;;;10.42;99.15
70027;BME280;57506;50.092;15.804;2023-04-10T10:00:44;99993.66;;;10.47;95.54
70027;BME280;57506;50.092;15.804;2023-04-10T10:03:12;99987.44;;;10.47;95.64
70027;BME280;57506;50.092;15.804;2023-04-10T10:05:40;99977.03;;;10.75;98.23
70027;BME280;57506;50.092;15.804;2023-04-10T10:08:08;99969.84;;;10.67;100.00
70027;BME280;57506;50.092;15.804;2023-04-10T10:10:37;99975.56;;;10.64;98.64
70027;BME280;57506;50.092;15.804;2023-04-10T10:13:05;99963.47;;;10.60;96.90
70027;BME280;57506;50.092;15.804;2023-04-10T10:18:24;99963.38;;;10.76;98.90
70027;BME280;57506;50.092;15.804;2023-04-10T10:20:52;99962.94;;;10.96;100.00
70027;BME280;57506;50.092;15.804;2023-04-10T10:23:18;99945.66;;;11.13;97.48
70027;BME280;57506;50.092;15.804;2023-04-10T10:25:44;99939.81;;;11.24;96.24
70027;BME280;57506;50.092;15.804;2023-04-10T10:28:12;99954.22;;;11.39;96.39
70027;BME280;57506;50.092;15.804;2023-04-10T10:30:39;99949.59;;;11.48;94.11
70027;BME280;57506;50.092;15.804;2023-04-10T10:33:06;99948.84;;;11.54;94.30
70027;BME280;57506;50.092;15.804;2023-04-10T10:35:34;99950.97;;;11.67;94.73
70027;BME280;57506;50.092;15.804;2023-04-10T10:38:01;99930.28;;;11.74;93.05
70027;BME280;57506;50.092;15.804;2023-04-10T10:40:32;99947.81;;;12.01;94.45
70027;BME280;57506;50.092;15.804;2023-04-10T10:45:34;99936.00;;;12.16;92.43
70027;BME280;57506;50.092;15.804;2023-04-10T10:48:02;99929.91;;;12.14;88.57
70027;BME280;57506;50.092;15.804;2023-04-10T10:53:44;99930.94;;;12.43;86.94
70027;BME280;57506;50.092;15.804;2023-04-10T10:58:49;99923.97;;;12.34;85.34
70027;BME280;57506;50.092;15.804;2023-04-10T11:01:17;99930.28;;;12.26;85.96
70027;BME280;57506;50.092;15.804;2023-04-10T11:03:43;99927.84;;;12.60;83.44
70027;BME280;57506;50.092;15.804;2023-04-10T11:06:17;99924.78;;;12.85;87.17
70027;BME280;57506;50.092;15.804;2023-04-10T11:08:49;99909.25;;;13.08;83.87
70027;BME280;57506;50.092;15.804;2023-04-10T11:11:20;99906.41;;;13.16;81.06
70027;BME280;57506;50.092;15.804;2023-04-10T11:16:40;99905.00;;;12.84;79.73
70027;BME280;57506;50.092;15.804;2023-04-10T11:19:08;99912.22;;;12.77;80.61
70027;BME280;57506;50.092;15.804;2023-04-10T11:22:00;99904.69;;;12.73;81.80
70027;BME280;57506;50.092;15.804;2023-04-10T11:24:28;99905.16;;;12.76;80.97
70027;BME280;57506;50.092;15.804;2023-04-10T11:26:54;99901.03;;;12.80;82.81
70027;BME280;57506;50.092;15.804;2023-04-10T11:31:56;99896.56;;;12.73;77.28
70027;BME280;57506;50.092;15.804;2023-04-10T11:34:23;99887.16;;;12.69;75.43
70027;BME280;57506;50.092;15.804;2023-04-10T11:36:48;99894.38;;;12.83;74.71
70027;BME280;57506;50.092;15.804;2023-04-10T11:39:15;99888.22;;;12.89;75.40
70027;BME280;57506;50.092;15.804;2023-04-10T11:41:45;99885.25;;;12.84;77.11
70027;BME280;57506;50.092;15.804;2023-04-10T11:44:14;99875.28;;;13.06;77.64
70027;BME280;57506;50.092;15.804;2023-04-10T11:46:43;99876.75;;;13.08;77.64
70027;BME280;57506;50.092;15.804;2023-04-10T11:49:16;99874.53;;;13.12;74.20
70027;BME280;57506;50.092;15.804;2023-04-10T11:51:44;99871.97;;;12.89;76.08
70027;BME280;57506;50.092;15.804;2023-04-10T11:54:12;99867.03;;;12.92;77.07
70027;BME280;57506;50.092;15.804;2023-04-10T11:56:40;99856.88;;;12.94;73.14
70027;BME280;57506;50.092;15.804;2023-04-10T11:59:07;99867.63;;;13.09;73.44
70027;BME280;57506;50.092;15.804;2023-04-10T12:01:41;99847.44;;;13.33;76.39
70027;BME280;57506;50.092;15.804;2023-04-10T12:06:43;99849.19;;;13.69;73.39
70027;BME280;57506;50.092;15.804;2023-04-10T12:09:14;99841.56;;;13.79;74.24
70027;BME280;57506;50.092;15.804;2023-04-10T12:14:14;99844.81;;;14.02;70.68
70027;BME280;57506;50.092;15.804;2023-04-10T12:16:39;99836.22;;;13.92;69.01
70027;BME280;57506;50.092;15.804;2023-04-10T12:19:06;99838.31;;;13.96;69.14
70027;BME280;57506;50.092;15.804;2023-04-10T12:21:35;99831.97;;;14.17;71.79
70027;BME280;57506;50.092;15.804;2023-04-10T12:24:00;99828.44;;;14.71;74.28
70027;BME280;57506;50.092;15.804;2023-04-10T12:26:26;99805.22;;;14.55;73.00
70027;BME280;57506;50.092;15.804;2023-04-10T12:28:56;99828.13;;;14.46;73.23
70027;BME280;57506;50.092;15.804;2023-04-10T12:31:32;99821.75;;;14.19;69.74
70027;BME280;57506;50.092;15.804;2023-04-10T12:33:58;99817.81;;;14.22;71.68
70027;BME280;57506;50.092;15.804;2023-04-10T12:36:29;99817.22;;;14.26;68.14
70027;BME280;57506;50.092;15.804;2023-04-10T12:38:59;99826.50;;;14.52;66.98
70027;BME280;57506;50.092;15.804;2023-04-10T12:41:29;99814.44;;;14.61;65.75
70027;BME280;57506;50.092;15.804;2023-04-10T12:44:08;99819.88;;;14.61;61.14
70027;BME280;57506;50.092;15.804;2023-04-10T12:46:35;99816.78;;;14.29;60.09
70027;BME280;57506;50.092;15.804;2023-04-10T12:54:10;99801.25;;;14.04;62.64
70027;BME280;57506;50.092;15.804;2023-04-10T12:56:43;99802.88;;;13.98;63.83
70027;BME280;57506;50.092;15.804;2023-04-10T12:59:09;99797.81;;;14.29;69.39
70027;BME280;57506;50.092;15.804;2023-04-10T13:01:37;99797.28;;;14.47;66.50
70027;BME280;57506;50.092;15.804;2023-04-10T13:04:03;99794.28;;;14.35;64.44
70027;BME280;57506;50.092;15.804;2023-04-10T13:06:28;99789.63;;;14.10;61.16
70027;BME280;57506;50.092;15.804;2023-04-10T13:08:54;99793.94;;;14.04;61.22
70027;BME280;57506;50.092;15.804;2023-04-10T13:11:20;99779.78;;;14.02;62.79
70027;BME280;57506;50.092;15.804;2023-04-10T13:13:48;99779.81;;;14.15;66.09
70027;BME280;57506;50.092;15.804;2023-04-10T13:16:15;99771.84;;;14.55;64.61
70027;BME280;57506;50.092;15.804;2023-04-10T13:18:42;99767.91;;;14.84;63.40
70027;BME280;57506;50.092;15.804;2023-04-10T13:21:07;99768.34;;;14.81;60.51
70027;BME280;57506;50.092;15.804;2023-04-10T13:23:36;99763.50;;;14.56;62.16